ZQN weather

Queenstown International Airport
Queenstown, Otago Region, New Zealand

Public forecast

Using degrees Celsius for public forecast. Weather courtesy of forecast.io.

Closest aviation weather report (METAR) to Queenstown International Airport

Closest report is Christchurch International Airport, 187.2 nm (346.7 km) ENE. Retrieved 2019/10/18 19:00 UTC (1 hour ago):

NZCH 181900Z AUTO 26004KT 9999 NCD 07/07 Q1000 NOSIG

Aviation forecast (TAF) for Queenstown International Airport

Retrieved 2019/10/18 17:00 UTC (3 hours ago):

TAF NZQN 181607Z 1817/1911 02005KT 9999 SCT040 BECMG 1821/1823 26015KT BECMG 1908/1910 02005KT